sensor_id;sensor_type;location;lat;lon;timestamp;temperature;humidity
64817;DHT22;69411;45.656;11.740;2023-07-02T00:00:32;21.80;79.20
64817;DHT22;69411;45.656;11.740;2023-07-02T00:03:00;21.80;79.20
64817;DHT22;69411;45.656;11.740;2023-07-02T00:05:26;21.80;79.30
64817;DHT22;69411;45.656;11.740;2023-07-02T00:07:52;21.80;79.40
64817;DHT22;69411;45.656;11.740;2023-07-02T00:10:18;21.80;79.70
64817;DHT22;69411;45.656;11.740;2023-07-02T00:12:44;21.80;79.70
64817;DHT22;69411;45.656;11.740;2023-07-02T00:15:10;21.70;79.90
64817;DHT22;69411;45.656;11.740;2023-07-02T00:17:36;21.70;79.70
64817;DHT22;69411;45.656;11.740;2023-07-02T00:20:07;21.60;79.90
64817;DHT22;69411;45.656;11.740;2023-07-02T00:22:40;21.60;79.80
64817;DHT22;69411;45.656;11.740;2023-07-02T00:25:10;21.60;80.00
64817;DHT22;69411;45.656;11.740;2023-07-02T00:27:36;21.60;79.90
64817;DHT22;69411;45.656;11.740;2023-07-02T00:30:04;21.50;79.90
64817;DHT22;69411;45.656;11.740;2023-07-02T00:32:30;21.50;80.00
64817;DHT22;69411;45.656;11.740;2023-07-02T00:34:56;21.50;80.20
64817;DHT22;69411;45.656;11.740;2023-07-02T00:37:22;21.50;79.90
64817;DHT22;69411;45.656;11.740;2023-07-02T00:39:48;21.40;80.00
64817;DHT22;69411;45.656;11.740;2023-07-02T00:42:14;21.50;80.00
64817;DHT22;69411;45.656;11.740;2023-07-02T00:44:40;21.40;80.00
64817;DHT22;69411;45.656;11.740;2023-07-02T00:47:09;21.40;80.00
64817;DHT22;69411;45.656;11.740;2023-07-02T00:49:36;21.40;79.90
64817;DHT22;69411;45.656;11.740;2023-07-02T00:52:03;21.40;80.00
64817;DHT22;69411;45.656;11.740;2023-07-02T00:54:29;21.40;80.00
64817;DHT22;69411;45.656;11.740;2023-07-02T00:56:56;21.40;80.10
64817;DHT22;69411;45.656;11.740;2023-07-02T00:59:22;21.30;80.10
64817;DHT22;69411;45.656;11.740;2023-07-02T01:01:48;21.30;80.00
64817;DHT22;69411;45.656;11.740;2023-07-02T01:04:18;21.30;80.00
64817;DHT22;69411;45.656;11.740;2023-07-02T01:06:44;21.30;80.00
64817;DHT22;69411;45.656;11.740;2023-07-02T01:09:11;21.30;80.20
64817;DHT22;69411;45.656;11.740;2023-07-02T01:14:08;21.10;80.00
64817;DHT22;69411;45.656;11.740;2023-07-02T01:16:36;21.10;80.20
64817;DHT22;69411;45.656;11.740;2023-07-02T01:19:06;21.10;80.30
64817;DHT22;69411;45.656;11.740;2023-07-02T01:21:36;21.10;80.20
64817;DHT22;69411;45.656;11.740;2023-07-02T01:24:03;21.00;80.20
64817;DHT22;69411;45.656;11.740;2023-07-02T01:26:31;21.00;80.30
64817;DHT22;69411;45.656;11.740;2023-07-02T01:29:16;21.00;80.30
64817;DHT22;69411;45.656;11.740;2023-07-02T01:31:43;21.00;80.20
64817;DHT22;69411;45.656;11.740;2023-07-02T01:34:09;21.00;80.30
64817;DHT22;69411;45.656;11.740;2023-07-02T01:36:35;21.00;80.20
64817;DHT22;69411;45.656;11.740;2023-07-02T01:39:01;21.00;80.20
64817;DHT22;69411;45.656;11.740;2023-07-02T01:41:27;21.00;80.20
64817;DHT22;69411;45.656;11.740;2023-07-02T01:43:53;21.00;80.10
64817;DHT22;69411;45.656;11.740;2023-07-02T01:46:19;21.00;80.10
64817;DHT22;69411;45.656;11.740;2023-07-02T01:48:45;21.00;80.10
64817;DHT22;69411;45.656;11.740;2023-07-02T01:51:11;21.10;80.10
64817;DHT22;69411;45.656;11.740;2023-07-02T01:53:37;21.10;80.10
64817;DHT22;69411;45.656;11.740;2023-07-02T01:56:03;21.10;80.10
64817;DHT22;69411;45.656;11.740;2023-07-02T01:58:29;21.10;80.10
64817;DHT22;69411;45.656;11.740;2023-07-02T02:00:55;21.10;80.10
64817;DHT22;69411;45.656;11.740;2023-07-02T02:03:22;21.10;80.00
64817;DHT22;69411;45.656;11.740;2023-07-02T02:05:48;21.10;80.10
64817;DHT22;69411;45.656;11.740;2023-07-02T02:08:14;21.10;80.10
64817;DHT22;69411;45.656;11.740;2023-07-02T02:10:40;21.10;80.10
64817;DHT22;69411;45.656;11.740;2023-07-02T02:13:06;21.00;80.30
64817;DHT22;69411;45.656;11.740;2023-07-02T02:15:32;21.00;80.40
64817;DHT22;69411;45.656;11.740;2023-07-02T02:17:57;21.00;80.40
64817;DHT22;69411;45.656;11.740;2023-07-02T02:20:23;21.00;80.20
64817;DHT22;69411;45.656;11.740;2023-07-02T02:22:49;21.00;80.20
64817;DHT22;69411;45.656;11.740;2023-07-02T02:25:15;21.00;80.20
64817;DHT22;69411;45.656;11.740;2023-07-02T02:27:42;21.00;80.20
64817;DHT22;69411;45.656;11.740;2023-07-02T02:30:09;21.00;80.20
64817;DHT22;69411;45.656;11.740;2023-07-02T02:32:35;21.00;80.20
64817;DHT22;69411;45.656;11.740;2023-07-02T02:35:01;21.00;80.10
64817;DHT22;69411;45.656;11.740;2023-07-02T02:37:27;21.00;80.10
64817;DHT22;69411;45.656;11.740;2023-07-02T02:39:52;21.00;80.10
64817;DHT22;69411;45.656;11.740;2023-07-02T02:42:18;21.00;80.00
64817;DHT22;69411;45.656;11.740;2023-07-02T02:44:44;21.00;80.00
64817;DHT22;69411;45.656;11.740;2023-07-02T02:47:10;21.00;79.90
64817;DHT22;69411;45.656;11.740;2023-07-02T02:49:37;21.00;79.90
64817;DHT22;69411;45.656;11.740;2023-07-02T02:52:05;21.00;79.90
64817;DHT22;69411;45.656;11.740;2023-07-02T02:54:31;21.00;79.90
64817;DHT22;69411;45.656;11.740;2023-07-02T02:56:57;21.10;79.90
64817;DHT22;69411;45.656;11.740;2023-07-02T02:59:23;21.10;79.90
64817;DHT22;69411;45.656;11.740;2023-07-02T03:01:49;21.10;79.80
64817;DHT22;69411;45.656;11.740;2023-07-02T03:04:17;21.10;79.70
64817;DHT22;69411;45.656;11.740;2023-07-02T03:06:43;21.10;79.60
64817;DHT22;69411;45.656;11.740;2023-07-02T03:09:09;21.10;79.60
64817;DHT22;69411;45.656;11.740;2023-07-02T03:11:35;21.00;79.50
64817;DHT22;69411;45.656;11.740;2023-07-02T03:14:00;21.00;79.50
64817;DHT22;69411;45.656;11.740;2023-07-02T03:16:26;21.00;79.50
64817;DHT22;69411;45.656;11.740;2023-07-02T03:18:52;21.00;79.50
64817;DHT22;69411;45.656;11.740;2023-07-02T03:21:18;20.90;79.60
64817;DHT22;69411;45.656;11.740;2023-07-02T03:23:44;20.90;79.60
64817;DHT22;69411;45.656;11.740;2023-07-02T03:26:10;20.90;79.60
64817;DHT22;69411;45.656;11.740;2023-07-02T03:28:36;20.90;79.70
64817;DHT22;69411;45.656;11.740;2023-07-02T03:31:02;20.90;79.70
64817;DHT22;69411;45.656;11.740;2023-07-02T03:33:28;20.80;79.90
64817;DHT22;69411;45.656;11.740;2023-07-02T03:35:54;20.80;80.10
64817;DHT22;69411;45.656;11.740;2023-07-02T03:38:20;20.80;80.20
64817;DHT22;69411;45.656;11.740;2023-07-02T03:40:46;20.70;80.20
64817;DHT22;69411;45.656;11.740;2023-07-02T03:43:12;20.60;80.10
64817;DHT22;69411;45.656;11.740;2023-07-02T03:45:38;20.60;80.10
64817;DHT22;69411;45.656;11.740;2023-07-02T03:48:04;20.60;80.20
64817;DHT22;69411;45.656;11.740;2023-07-02T03:50:32;20.60;80.30
64817;DHT22;69411;45.656;11.740;2023-07-02T03:52:58;20.60;80.30
64817;DHT22;69411;45.656;11.740;2023-07-02T03:55:25;20.60;80.30
64817;DHT22;69411;45.656;11.740;2023-07-02T03:57:51;20.60;80.30
64817;DHT22;69411;45.656;11.740;2023-07-02T04:00:17;20.70;80.30
64817;DHT22;69411;45.656;11.740;2023-07-02T04:02:43;20.70;80.20
64817;DHT22;69411;45.656;11.740;2023-07-02T04:05:09;20.70;80.10
64817;DHT22;69411;45.656;11.740;2023-07-02T04:07:35;20.70;80.10
64817;DHT22;69411;45.656;11.740;2023-07-02T04:10:00;20.70;80.10
64817;DHT22;69411;45.656;11.740;2023-07-02T04:12:27;20.80;80.10
64817;DHT22;69411;45.656;11.740;2023-07-02T04:14:54;20.80;80.00
64817;DHT22;69411;45.656;11.740;2023-07-02T04:17:20;20.90;80.00
64817;DHT22;69411;45.656;11.740;2023-07-02T04:19:46;20.90;79.90
64817;DHT22;69411;45.656;11.740;2023-07-02T04:22:12;20.90;79.80
64817;DHT22;69411;45.656;11.740;2023-07-02T04:24:38;21.00;79.80
64817;DHT22;69411;45.656;11.740;2023-07-02T04:27:04;21.10;79.70
64817;DHT22;69411;45.656;11.740;2023-07-02T04:29:30;21.20;79.60
64817;DHT22;69411;45.656;11.740;2023-07-02T04:31:56;21.30;79.40
64817;DHT22;69411;45.656;11.740;2023-07-02T04:34:21;21.40;79.10
64817;DHT22;69411;45.656;11.740;2023-07-02T04:36:47;21.50;79.10
64817;DHT22;69411;45.656;11.740;2023-07-02T04:39:14;21.60;78.90
64817;DHT22;69411;45.656;11.740;2023-07-02T04:41:40;21.70;78.60
64817;DHT22;69411;45.656;11.740;2023-07-02T04:44:06;21.90;78.70
64817;DHT22;69411;45.656;11.740;2023-07-02T04:46:32;22.00;78.40
64817;DHT22;69411;45.656;11.740;2023-07-02T04:48:58;22.00;78.20
64817;DHT22;69411;45.656;11.740;2023-07-02T04:51:24;22.20;78.10
64817;DHT22;69411;45.656;11.740;2023-07-02T04:53:49;22.30;78.00
64817;DHT22;69411;45.656;11.740;2023-07-02T04:56:15;22.40;77.90
64817;DHT22;69411;45.656;11.740;2023-07-02T04:58:41;22.50;77.70
64817;DHT22;69411;45.656;11.740;2023-07-02T05:01:07;22.70;77.20
64817;DHT22;69411;45.656;11.740;2023-07-02T05:03:33;23.10;76.80
64817;DHT22;69411;45.656;11.740;2023-07-02T05:06:00;23.30;76.10
64817;DHT22;69411;45.656;11.740;2023-07-02T05:08:26;23.30;75.70
64817;DHT22;69411;45.656;11.740;2023-07-02T05:10:52;23.20;75.50
64817;DHT22;69411;45.656;11.740;2023-07-02T05:13:18;23.10;75.50
64817;DHT22;69411;45.656;11.740;2023-07-02T05:15:44;22.90;75.60
64817;DHT22;69411;45.656;11.740;2023-07-02T05:18:10;22.90;75.80
64817;DHT22;69411;45.656;11.740;2023-07-02T05:20:36;22.80;75.90
64817;DHT22;69411;45.656;11.740;2023-07-02T05:23:02;22.70;76.10
64817;DHT22;69411;45.656;11.740;2023-07-02T05:25:28;22.60;76.20
64817;DHT22;69411;45.656;11.740;2023-07-02T05:27:54;22.50;76.30
64817;DHT22;69411;45.656;11.740;2023-07-02T05:30:19;22.50;76.50
64817;DHT22;69411;45.656;11.740;2023-07-02T05:32:46;22.50;76.70
64817;DHT22;69411;45.656;11.740;2023-07-02T05:35:12;22.50;76.60
64817;DHT22;69411;45.656;11.740;2023-07-02T05:37:38;22.50;76.60
64817;DHT22;69411;45.656;11.740;2023-07-02T05:40:04;22.50;76.70
64817;DHT22;69411;45.656;11.740;2023-07-02T05:42:30;22.60;76.60
64817;DHT22;69411;45.656;11.740;2023-07-02T05:44:56;22.50;76.60
64817;DHT22;69411;45.656;11.740;2023-07-02T05:47:22;22.60;76.60
64817;DHT22;69411;45.656;11.740;2023-07-02T05:49:48;22.60;76.50
64817;DHT22;69411;45.656;11.740;2023-07-02T05:52:14;22.60;76.70
64817;DHT22;69411;45.656;11.740;2023-07-02T05:54:40;22.60;76.80
64817;DHT22;69411;45.656;11.740;2023-07-02T05:57:06;22.60;77.00
64817;DHT22;69411;45.656;11.740;2023-07-02T05:59:33;22.50;76.80
64817;DHT22;69411;45.656;11.740;2023-07-02T06:01:59;22.50;76.80
64817;DHT22;69411;45.656;11.740;2023-07-02T06:04:25;22.50;76.90
64817;DHT22;69411;45.656;11.740;2023-07-02T06:06:51;22.60;76.80
64817;DHT22;69411;45.656;11.740;2023-07-02T06:09:17;22.70;76.70
64817;DHT22;69411;45.656;11.740;2023-07-02T06:11:43;22.90;76.60
64817;DHT22;69411;45.656;11.740;2023-07-02T06:14:09;23.10;76.40
64817;DHT22;69411;45.656;11.740;2023-07-02T06:16:35;23.30;76.00
64817;DHT22;69411;45.656;11.740;2023-07-02T06:19:01;23.40;75.70
64817;DHT22;69411;45.656;11.740;2023-07-02T06:21:31;23.50;75.50
64817;DHT22;69411;45.656;11.740;2023-07-02T06:23:57;23.60;75.20
64817;DHT22;69411;45.656;11.740;2023-07-02T06:26:24;23.60;75.00
64817;DHT22;69411;45.656;11.740;2023-07-02T06:28:51;23.70;74.60
64817;DHT22;69411;45.656;11.740;2023-07-02T06:31:17;23.70;74.60
64817;DHT22;69411;45.656;11.740;2023-07-02T06:33:42;23.70;74.40
64817;DHT22;69411;45.656;11.740;2023-07-02T06:36:08;23.60;74.40
64817;DHT22;69411;45.656;11.740;2023-07-02T06:38:34;23.60;74.20
64817;DHT22;69411;45.656;11.740;2023-07-02T06:41:00;23.50;74.40
64817;DHT22;69411;45.656;11.740;2023-07-02T06:43:26;23.50;74.40
64817;DHT22;69411;45.656;11.740;2023-07-02T06:45:52;23.50;74.50
64817;DHT22;69411;45.656;11.740;2023-07-02T06:48:18;23.50;74.40
64817;DHT22;69411;45.656;11.740;2023-07-02T06:50:47;23.50;74.10
64817;DHT22;69411;45.656;11.740;2023-07-02T06:53:13;23.50;73.90
64817;DHT22;69411;45.656;11.740;2023-07-02T06:55:39;23.50;74.20
64817;DHT22;69411;45.656;11.740;2023-07-02T06:58:05;23.60;74.00
64817;DHT22;69411;45.656;11.740;2023-07-02T07:00:33;23.70;73.80
64817;DHT22;69411;45.656;11.740;2023-07-02T07:03:02;24.00;73.50
64817;DHT22;69411;45.656;11.740;2023-07-02T07:05:30;24.20;73.00
64817;DHT22;69411;45.656;11.740;2023-07-02T07:07:57;24.40;72.50
64817;DHT22;69411;45.656;11.740;2023-07-02T07:10:24;24.60;72.00
64817;DHT22;69411;45.656;11.740;2023-07-02T07:12:50;24.80;71.50
64817;DHT22;69411;45.656;11.740;2023-07-02T07:15:16;24.90;70.70
64817;DHT22;69411;45.656;11.740;2023-07-02T07:17:42;24.90;70.80
64817;DHT22;69411;45.656;11.740;2023-07-02T07:20:08;25.10;70.90
64817;DHT22;69411;45.656;11.740;2023-07-02T07:22:34;25.20;70.50
64817;DHT22;69411;45.656;11.740;2023-07-02T07:25:00;25.20;70.40
64817;DHT22;69411;45.656;11.740;2023-07-02T07:27:26;25.10;70.00
64817;DHT22;69411;45.656;11.740;2023-07-02T07:29:52;25.00;70.20
64817;DHT22;69411;45.656;11.740;2023-07-02T07:34:43;25.00;70.30
64817;DHT22;69411;45.656;11.740;2023-07-02T07:37:09;24.90;70.40
64817;DHT22;69411;45.656;11.740;2023-07-02T07:39:36;24.80;70.50
64817;DHT22;69411;45.656;11.740;2023-07-02T07:42:02;24.80;70.80
64817;DHT22;69411;45.656;11.740;2023-07-02T07:44:28;24.80;71.00
64817;DHT22;69411;45.656;11.740;2023-07-02T07:46:55;24.80;71.00
64817;DHT22;69411;45.656;11.740;2023-07-02T07:49:22;24.90;71.00
64817;DHT22;69411;45.656;11.740;2023-07-02T07:51:48;24.90;71.00
64817;DHT22;69411;45.656;11.740;2023-07-02T07:54:14;25.00;70.80
64817;DHT22;69411;45.656;11.740;2023-07-02T07:56:40;25.10;70.80
64817;DHT22;69411;45.656;11.740;2023-07-02T07:59:07;25.20;70.40
64817;DHT22;69411;45.656;11.740;2023-07-02T08:01:32;25.30;70.30
64817;DHT22;69411;45.656;11.740;2023-07-02T08:03:59;25.40;70.10
64817;DHT22;69411;45.656;11.740;2023-07-02T08:06:25;25.50;69.70
64817;DHT22;69411;45.656;11.740;2023-07-02T08:08:51;25.70;69.50
64817;DHT22;69411;45.656;11.740;2023-07-02T08:11:17;25.80;69.20
64817;DHT22;69411;45.656;11.740;2023-07-02T08:13:43;25.90;68.80
64817;DHT22;69411;45.656;11.740;2023-07-02T08:16:09;26.20;68.40
64817;DHT22;69411;45.656;11.740;2023-07-02T08:18:35;26.40;68.00
64817;DHT22;69411;45.656;11.740;2023-07-02T08:21:01;26.60;67.00
64817;DHT22;69411;45.656;11.740;2023-07-02T08:23:28;26.80;66.20
64817;DHT22;69411;45.656;11.740;2023-07-02T08:25:54;26.90;66.10
64817;DHT22;69411;45.656;11.740;2023-07-02T08:28:20;27.00;65.90
64817;DHT22;69411;45.656;11.740;2023-07-02T08:30:46;27.20;65.80
64817;DHT22;69411;45.656;11.740;2023-07-02T08:33:12;27.40;65.50
64817;DHT22;69411;45.656;11.740;2023-07-02T08:35:38;27.40;65.00
64817;DHT22;69411;45.656;11.740;2023-07-02T08:38:04;27.40;64.30
64817;DHT22;69411;45.656;11.740;2023-07-02T08:40:30;27.40;64.30
64817;DHT22;69411;45.656;11.740;2023-07-02T08:42:56;27.50;64.20
64817;DHT22;69411;45.656;11.740;2023-07-02T08:45:23;27.40;63.80
64817;DHT22;69411;45.656;11.740;2023-07-02T08:47:52;27.50;63.60
64817;DHT22;69411;45.656;11.740;2023-07-02T08:50:22;27.50;63.70
64817;DHT22;69411;45.656;11.740;2023-07-02T08:52:49;27.60;63.70
64817;DHT22;69411;45.656;11.740;2023-07-02T08:55:15;27.60;63.10
64817;DHT22;69411;45.656;11.740;2023-07-02T08:57:51;27.60;63.10
64817;DHT22;69411;45.656;11.740;2023-07-02T09:00:18;27.70;63.10
64817;DHT22;69411;45.656;11.740;2023-07-02T09:02:44;27.70;62.80
64817;DHT22;69411;45.656;11.740;2023-07-02T09:05:10;27.60;62.80
64817;DHT22;69411;45.656;11.740;2023-07-02T09:07:46;27.50;62.80
64817;DHT22;69411;45.656;11.740;2023-07-02T09:10:34;27.50;62.90
64817;DHT22;69411;45.656;11.740;2023-07-02T09:13:06;27.50;62.70
64817;DHT22;69411;45.656;11.740;2023-07-02T09:15:38;27.50;62.50
64817;DHT22;69411;45.656;11.740;2023-07-02T09:18:22;27.40;62.50
64817;DHT22;69411;45.656;11.740;2023-07-02T09:20:54;27.50;63.00
64817;DHT22;69411;45.656;11.740;2023-07-02T09:23:20;27.60;62.90
64817;DHT22;69411;45.656;11.740;2023-07-02T09:25:46;27.80;62.30
64817;DHT22;69411;45.656;11.740;2023-07-02T09:28:21;28.00;61.90
64817;DHT22;69411;45.656;11.740;2023-07-02T09:30:52;28.10;61.70
64817;DHT22;69411;45.656;11.740;2023-07-02T09:33:18;28.30;61.50
64817;DHT22;69411;45.656;11.740;2023-07-02T09:35:44;28.50;61.20
64817;DHT22;69411;45.656;11.740;2023-07-02T09:38:14;28.60;60.80
64817;DHT22;69411;45.656;11.740;2023-07-02T09:40:46;28.70;60.10
64817;DHT22;69411;45.656;11.740;2023-07-02T09:43:14;28.70;59.60
64817;DHT22;69411;45.656;11.740;2023-07-02T09:45:43;28.90;59.80
64817;DHT22;69411;45.656;11.740;2023-07-02T09:48:13;29.00;59.70
64817;DHT22;69411;45.656;11.740;2023-07-02T09:50:47;29.20;59.40
64817;DHT22;69411;45.656;11.740;2023-07-02T09:53:14;29.40;59.30
64817;DHT22;69411;45.656;11.740;2023-07-02T09:55:42;29.40;57.80
64817;DHT22;69411;45.656;11.740;2023-07-02T09:58:09;29.40;57.00
64817;DHT22;69411;45.656;11.740;2023-07-02T10:00:36;29.50;56.80
64817;DHT22;69411;45.656;11.740;2023-07-02T10:03:02;29.60;56.80
64817;DHT22;69411;45.656;11.740;2023-07-02T10:05:31;29.70;56.00
64817;DHT22;69411;45.656;11.740;2023-07-02T10:07:58;29.80;55.70
64817;DHT22;69411;45.656;11.740;2023-07-02T10:10:34;29.90;55.90
64817;DHT22;69411;45.656;11.740;2023-07-02T10:13:01;30.00;55.90
64817;DHT22;69411;45.656;11.740;2023-07-02T10:15:28;30.10;54.90
64817;DHT22;69411;45.656;11.740;2023-07-02T10:17:59;30.10;54.50
64817;DHT22;69411;45.656;11.740;2023-07-02T10:20:33;30.10;54.50
64817;DHT22;69411;45.656;11.740;2023-07-02T10:22:59;29.90;54.70
64817;DHT22;69411;45.656;11.740;2023-07-02T10:25:32;29.80;55.40
64817;DHT22;69411;45.656;11.740;2023-07-02T10:28:00;29.80;55.50
64817;DHT22;69411;45.656;11.740;2023-07-02T10:30:36;29.90;55.10
64817;DHT22;69411;45.656;11.740;2023-07-02T10:33:16;30.00;54.70
64817;DHT22;69411;45.656;11.740;2023-07-02T10:35:47;30.00;54.40
64817;DHT22;69411;45.656;11.740;2023-07-02T10:38:17;30.10;54.20
64817;DHT22;69411;45.656;11.740;2023-07-02T10:40:44;30.10;54.40
64817;DHT22;69411;45.656;11.740;2023-07-02T10:43:10;30.20;53.90
64817;DHT22;69411;45.656;11.740;2023-07-02T10:45:36;30.10;54.20
64817;DHT22;69411;45.656;11.740;2023-07-02T10:48:08;30.00;54.50
64817;DHT22;69411;45.656;11.740;2023-07-02T10:50:35;30.10;55.10
64817;DHT22;69411;45.656;11.740;2023-07-02T10:53:01;30.20;54.90
64817;DHT22;69411;45.656;11.740;2023-07-02T10:55:27;30.20;55.10
64817;DHT22;69411;45.656;11.740;2023-07-02T10:58:10;30.10;54.50
64817;DHT22;69411;45.656;11.740;2023-07-02T11:00:50;29.90;55.00
64817;DHT22;69411;45.656;11.740;2023-07-02T11:03:17;29.80;55.20
64817;DHT22;69411;45.656;11.740;2023-07-02T11:05:45;29.70;55.90
64817;DHT22;69411;45.656;11.740;2023-07-02T11:08:11;29.60;55.90
64817;DHT22;69411;45.656;11.740;2023-07-02T11:10:38;29.50;56.10
64817;DHT22;69411;45.656;11.740;2023-07-02T11:13:30;29.50;55.80
64817;DHT22;69411;45.656;11.740;2023-07-02T11:15:56;29.40;55.60
64817;DHT22;69411;45.656;11.740;2023-07-02T11:18:22;29.40;55.40
64817;DHT22;69411;45.656;11.740;2023-07-02T11:20:50;29.30;55.40
64817;DHT22;69411;45.656;11.740;2023-07-02T11:23:24;29.30;55.60
64817;DHT22;69411;45.656;11.740;2023-07-02T11:25:59;29.30;55.20
64817;DHT22;69411;45.656;11.740;2023-07-02T11:28:27;29.40;55.40
64817;DHT22;69411;45.656;11.740;2023-07-02T11:30:54;29.50;55.60
64817;DHT22;69411;45.656;11.740;2023-07-02T11:33:36;29.60;55.40
64817;DHT22;69411;45.656;11.740;2023-07-02T11:36:03;29.70;55.10
64817;DHT22;69411;45.656;11.740;2023-07-02T11:38:30;29.70;54.70
64817;DHT22;69411;45.656;11.740;2023-07-02T11:40:56;29.70;54.70
64817;DHT22;69411;45.656;11.740;2023-07-02T11:43:22;29.70;53.90
64817;DHT22;69411;45.656;11.740;2023-07-02T11:45:48;29.70;54.20
64817;DHT22;69411;45.656;11.740;2023-07-02T11:48:14;29.70;54.30
64817;DHT22;69411;45.656;11.740;2023-07-02T11:50:40;29.80;54.00
64817;DHT22;69411;45.656;11.740;2023-07-02T11:53:08;29.70;54.30
64817;DHT22;69411;45.656;11.740;2023-07-02T11:55:36;29.70;54.20
64817;DHT22;69411;45.656;11.740;2023-07-02T11:58:02;29.70;54.70
64817;DHT22;69411;45.656;11.740;2023-07-02T12:00:28;29.80;54.20
64817;DHT22;69411;45.656;11.740;2023-07-02T12:02:54;29.80;54.40
64817;DHT22;69411;45.656;11.740;2023-07-02T12:05:20;29.70;54.30
64817;DHT22;69411;45.656;11.740;2023-07-02T12:07:47;29.60;54.70
64817;DHT22;69411;45.656;11.740;2023-07-02T12:10:14;29.60;54.90
64817;DHT22;69411;45.656;11.740;2023-07-02T12:12:41;29.50;55.00
64817;DHT22;69411;45.656;11.740;2023-07-02T12:15:08;29.60;55.20
64817;DHT22;69411;45.656;11.740;2023-07-02T12:17:34;29.70;54.50
64817;DHT22;69411;45.656;11.740;2023-07-02T12:20:00;29.80;54.20
64817;DHT22;69411;45.656;11.740;2023-07-02T12:22:26;29.90;54.30
64817;DHT22;69411;45.656;11.740;2023-07-02T12:24:53;30.00;54.40
64817;DHT22;69411;45.656;11.740;2023-07-02T12:27:21;30.10;54.40
64817;DHT22;69411;45.656;11.740;2023-07-02T12:32:13;30.20;54.40
64817;DHT22;69411;45.656;11.740;2023-07-02T12:34:39;30.20;54.40
64817;DHT22;69411;45.656;11.740;2023-07-02T12:37:07;30.20;54.20
64817;DHT22;69411;45.656;11.740;2023-07-02T12:39:33;30.20;54.50
64817;DHT22;69411;45.656;11.740;2023-07-02T12:42:00;30.30;54.30
64817;DHT22;69411;45.656;11.740;2023-07-02T12:44:26;30.30;54.20
64817;DHT22;69411;45.656;11.740;2023-07-02T12:46:52;30.30;53.80
64817;DHT22;69411;45.656;11.740;2023-07-02T12:49:18;30.30;53.10
64817;DHT22;69411;45.656;11.740;2023-07-02T12:51:48;30.30;53.10
64817;DHT22;69411;45.656;11.740;2023-07-02T12:54:14;30.40;53.20
64817;DHT22;69411;45.656;11.740;2023-07-02T12:56:41;30.40;53.30
64817;DHT22;69411;45.656;11.740;2023-07-02T12:59:07;30.30;53.60
64817;DHT22;69411;45.656;11.740;2023-07-02T13:01:33;30.40;53.80
64817;DHT22;69411;45.656;11.740;2023-07-02T13:03:59;30.40;53.90
64817;DHT22;69411;45.656;11.740;2023-07-02T13:06:25;30.40;53.60
64817;DHT22;69411;45.656;11.740;2023-07-02T13:08:51;30.40;53.30
64817;DHT22;69411;45.656;11.740;2023-07-02T13:11:17;30.30;53.60
64817;DHT22;69411;45.656;11.740;2023-07-02T13:13:43;30.30;53.40
64817;DHT22;69411;45.656;11.740;2023-07-02T13:16:09;30.30;53.40
64817;DHT22;69411;45.656;11.740;2023-07-02T13:18:35;30.30;53.10
64817;DHT22;69411;45.656;11.740;2023-07-02T13:21:01;30.20;53.50
64817;DHT22;69411;45.656;11.740;2023-07-02T13:23:27;30.10;53.60
64817;DHT22;69411;45.656;11.740;2023-07-02T13:25:53;30.10;53.70
64817;DHT22;69411;45.656;11.740;2023-07-02T13:28:20;30.20;53.80
64817;DHT22;69411;45.656;11.740;2023-07-02T13:30:47;30.20;54.00
64817;DHT22;69411;45.656;11.740;2023-07-02T13:33:13;30.30;54.10
64817;DHT22;69411;45.656;11.740;2023-07-02T13:35:39;30.30;53.80
64817;DHT22;69411;45.656;11.740;2023-07-02T13:38:05;30.30;53.70
64817;DHT22;69411;45.656;11.740;2023-07-02T13:40:31;30.30;53.50
64817;DHT22;69411;45.656;11.740;2023-07-02T13:42:57;30.20;53.70
64817;DHT22;69411;45.656;11.740;2023-07-02T13:45:23;30.20;53.30
64817;DHT22;69411;45.656;11.740;2023-07-02T13:47:49;30.10;53.50
64817;DHT22;69411;45.656;11.740;2023-07-02T13:50:15;30.10;53.40
64817;DHT22;69411;45.656;11.740;2023-07-02T13:52:41;30.10;52.90
64817;DHT22;69411;45.656;11.740;2023-07-02T13:55:07;30.10;53.10
64817;DHT22;69411;45.656;11.740;2023-07-02T13:57:33;30.10;53.40
64817;DHT22;69411;45.656;11.740;2023-07-02T13:59:59;30.10;53.50
64817;DHT22;69411;45.656;11.740;2023-07-02T14:02:26;30.10;53.40
64817;DHT22;69411;45.656;11.740;2023-07-02T14:04:52;30.10;53.60
64817;DHT22;69411;45.656;11.740;2023-07-02T14:07:18;30.20;53.40
64817;DHT22;69411;45.656;11.740;2023-07-02T14:09:44;30.20;53.30
64817;DHT22;69411;45.656;11.740;2023-07-02T14:12:10;30.20;52.90
64817;DHT22;69411;45.656;11.740;2023-07-02T14:14:37;30.10;52.80
64817;DHT22;69411;45.656;11.740;2023-07-02T14:17:04;30.10;52.90
64817;DHT22;69411;45.656;11.740;2023-07-02T14:19:30;30.00;53.00
64817;DHT22;69411;45.656;11.740;2023-07-02T14:21:56;30.00;53.00
64817;DHT22;69411;45.656;11.740;2023-07-02T14:24:22;30.00;53.20
64817;DHT22;69411;45.656;11.740;2023-07-02T14:26:48;30.10;53.50
64817;DHT22;69411;45.656;11.740;2023-07-02T14:29:14;30.20;53.30
64817;DHT22;69411;45.656;11.740;2023-07-02T14:31:40;30.20;53.30
64817;DHT22;69411;45.656;11.740;2023-07-02T14:34:06;30.30;53.30
64817;DHT22;69411;45.656;11.740;2023-07-02T14:36:32;30.40;52.90
64817;DHT22;69411;45.656;11.740;2023-07-02T14:38:58;30.50;52.60
64817;DHT22;69411;45.656;11.740;2023-07-02T14:41:24;30.50;52.50
64817;DHT22;69411;45.656;11.740;2023-07-02T14:43:50;30.60;52.40
64817;DHT22;69411;45.656;11.740;2023-07-02T14:46:16;30.70;52.50
64817;DHT22;69411;45.656;11.740;2023-07-02T14:48:42;30.80;52.40
64817;DHT22;69411;45.656;11.740;2023-07-02T14:51:08;30.80;52.30
64817;DHT22;69411;45.656;11.740;2023-07-02T14:53:34;30.80;52.30
64817;DHT22;69411;45.656;11.740;2023-07-02T14:56:01;30.80;52.60
64817;DHT22;69411;45.656;11.740;2023-07-02T14:58:29;30.70;52.70
64817;DHT22;69411;45.656;11.740;2023-07-02T15:00:56;30.60;52.70
64817;DHT22;69411;45.656;11.740;2023-07-02T15:03:24;30.50;53.00
64817;DHT22;69411;45.656;11.740;2023-07-02T15:05:51;30.40;53.20
64817;DHT22;69411;45.656;11.740;2023-07-02T15:08:18;30.30;53.30
64817;DHT22;69411;45.656;11.740;2023-07-02T15:10:49;30.30;53.60
64817;DHT22;69411;45.656;11.740;2023-07-02T15:13:16;30.30;53.60
64817;DHT22;69411;45.656;11.740;2023-07-02T15:15:44;30.40;53.70
64817;DHT22;69411;45.656;11.740;2023-07-02T15:18:11;30.40;53.50
64817;DHT22;69411;45.656;11.740;2023-07-02T15:20:37;30.40;53.80